Time;durP1;ratioP1;P1;durP2;ratioP2;P2;SDS_P1;SDS_P2;PMS_P1;PMS_P2;Temp;Humidity;BMP_temperature;BMP_pressure;BME280_temperature;BME280_humidity;BME280_pressure;Samples;Min_cycle;Max_cycle;Signal;HPM_P1;HPM_P2
2023/01/10 00:00:52;;;;;;;23.02;12.32;;;5.50;99.90;;;;;;5079621;28;25070;-76
2023/01/10 00:03:19;;;;;;;26.63;12.88;;;5.50;99.90;;;;;;5080061;28;25068;-78
2023/01/10 00:05:46;;;;;;;25.42;12.20;;;5.60;99.90;;;;;;5079504;28;25132;-77
2023/01/10 00:08:15;;;;;;;24.35;12.35;;;5.50;99.90;;;;;;5078478;28;25076;-77
2023/01/10 00:10:43;;;;;;;29.17;12.60;;;5.50;99.90;;;;;;5078244;28;25082;-77
2023/01/10 00:13:24;;;;;;;24.33;11.98;;;5.60;99.90;;;;;;5079065;28;25082;-77
2023/01/10 00:15:53;;;;;;;20.33;10.40;;;5.60;99.90;;;;;;5079879;28;25110;-77
2023/01/10 00:18:21;;;;;;;28.05;12.23;;;5.60;99.90;;;;;;5078334;28;25090;-77
2023/01/10 00:20:49;;;;;;;23.08;12.15;;;5.60;99.90;;;;;;5078856;28;25116;-79
2023/01/10 00:23:17;;;;;;;23.10;10.95;;;5.60;99.90;;;;;;5078821;28;25071;-79
2023/01/10 00:25:45;;;;;;;26.88;11.27;;;5.60;99.90;;;;;;5077835;28;25057;-77
2023/01/10 00:28:19;;;;;;;19.40;12.10;;;5.60;99.90;;;;;;5078885;28;25112;-77
2023/01/10 00:30:54;;;;;;;23.90;11.40;;;5.60;99.90;;;;;;5072715;28;25123;-77
2023/01/10 00:33:22;;;;;;;21.17;10.20;;;5.60;99.90;;;;;;5059570;28;25081;-79
2023/01/10 00:35:49;;;;;;;17.60;9.57;;;5.60;99.90;;;;;;5058910;28;25113;-79
2023/01/10 00:38:17;;;;;;;20.98;10.90;;;5.60;99.90;;;;;;5041048;28;25052;-79
2023/01/10 00:40:45;;;;;;;18.60;10.32;;;5.60;99.90;;;;;;5041213;28;25133;-79
2023/01/10 00:45:58;;;;;;;17.52;9.77;;;5.60;99.90;;;;;;5059057;28;25059;-79
2023/01/10 00:48:25;;;;;;;19.70;7.78;;;5.60;99.90;;;;;;5041148;28;25055;-78
2023/01/10 00:50:52;;;;;;;17.90;7.65;;;5.60;99.90;;;;;;5041134;28;25141;-79
2023/01/10 00:53:20;;;;;;;16.67;7.80;;;5.60;99.90;;;;;;5058567;28;25064;-79
2023/01/10 00:55:48;;;;;;;15.85;6.82;;;5.60;99.90;;;;;;5040119;28;25122;-78
2023/01/10 00:58:16;;;;;;;12.90;7.15;;;5.60;99.90;;;;;;5058980;28;25068;-79
2023/01/10 01:00:50;;;;;;;13.85;6.70;;;5.60;99.90;;;;;;5040782;28;25076;-79
2023/01/10 01:03:20;;;;;;;14.65;6.05;;;5.60;99.90;;;;;;5040797;28;25059;-79
2023/01/10 01:05:51;;;;;;;18.38;6.68;;;5.60;99.90;;;;;;5058365;28;25065;-79
2023/01/10 01:08:19;;;;;;;14.32;7.00;;;5.60;99.90;;;;;;5058469;28;25108;-79
2023/01/10 01:10:46;;;;;;;13.07;6.05;;;5.60;99.90;;;;;;5058472;28;25054;-79
2023/01/10 01:13:19;;;;;;;8.98;4.68;;;5.60;99.90;;;;;;5040518;28;25066;-79
2023/01/10 01:15:47;;;;;;;10.82;4.78;;;5.60;99.90;;;;;;5058178;28;25070;-79
2023/01/10 01:18:19;;;;;;;11.45;5.05;;;5.60;99.90;;;;;;5058265;28;25057;-78
2023/01/10 01:20:52;;;;;;;10.05;5.05;;;5.60;99.90;;;;;;5058350;28;25060;-78
2023/01/10 01:23:19;;;;;;;11.98;4.95;;;5.60;99.90;;;;;;5058193;28;25080;-79
2023/01/10 01:25:50;;;;;;;10.45;4.75;;;5.60;99.90;;;;;;5040352;28;25052;-78
2023/01/10 01:28:18;;;;;;;5.68;3.53;;;5.60;99.90;;;;;;5058114;28;25046;-79
2023/01/10 01:30:45;;;;;;;8.23;4.10;;;5.50;99.90;;;;;;5056538;28;25092;-78
2023/01/10 01:33:12;;;;;;;6.90;3.33;;;5.60;99.90;;;;;;5056798;28;25075;-78
2023/01/10 01:35:43;;;;;;;10.48;3.42;;;5.50;99.90;;;;;;5058107;28;25050;-79
2023/01/10 01:38:12;;;;;;;6.55;3.40;;;5.50;99.90;;;;;;5058089;28;25098;-78
2023/01/10 01:40:40;;;;;;;11.38;4.00;;;5.50;99.90;;;;;;5057723;28;25449;-78
2023/01/10 01:43:26;;;;;;;9.13;3.30;;;5.50;99.90;;;;;;5057715;28;25082;-78
2023/01/10 01:45:57;;;;;;;6.18;2.70;;;5.40;99.90;;;;;;5039935;28;25144;-79
2023/01/10 01:48:31;;;;;;;9.90;2.78;;;5.40;99.90;;;;;;5040075;28;25108;-78
2023/01/10 01:51:10;;;;;;;5.90;1.88;;;5.40;99.90;;;;;;5039110;28;25098;-78
2023/01/10 01:53:54;;;;;;;9.90;2.55;;;5.40;99.90;;;;;;5039746;28;25080;-78
2023/01/10 01:56:37;;;;;;;6.55;2.33;;;5.40;99.90;;;;;;5039702;28;25069;-79
2023/01/10 01:59:25;;;;;;;9.75;2.15;;;5.40;99.90;;;;;;5057532;28;25085;-78
2023/01/10 02:02:01;;;;;;;5.70;2.33;;;5.40;99.90;;;;;;5057325;28;25095;-78
2023/01/10 02:04:41;;;;;;;5.30;2.35;;;5.40;99.90;;;;;;5057577;28;25078;-78
2023/01/10 02:07:10;;;;;;;5.50;2.40;;;5.40;99.90;;;;;;5057128;28;25088;-79
2023/01/10 02:09:54;;;;;;;7.38;2.10;;;5.30;99.90;;;;;;5039570;28;25085;-79
2023/01/10 02:12:21;;;;;;;7.22;2.00;;;5.30;99.90;;;;;;5057263;28;25104;-78
2023/01/10 02:14:50;;;;;;;5.50;2.08;;;5.30;99.90;;;;;;5039387;28;25086;-79
2023/01/10 02:17:17;;;;;;;7.78;2.03;;;5.30;99.90;;;;;;5057269;28;25097;-78
2023/01/10 02:19:58;;;;;;;7.55;1.33;;;5.20;99.90;;;;;;5057697;28;25071;-79
2023/01/10 02:22:54;;;;;;;3.33;1.35;;;5.20;99.90;;;;;;5039182;28;25112;-78
2023/01/10 02:26:06;;;;;;;4.35;1.38;;;5.10;99.90;;;;;;5057182;28;25048;-79
2023/01/10 02:29:08;;;;;;;3.92;2.10;;;5.10;99.90;;;;;;5024389;28;25058;-79
2023/01/10 02:32:00;;;;;;;6.22;2.40;;;5.10;99.90;;;;;;5056694;28;25087;-79
2023/01/10 02:35:03;;;;;;;8.45;3.47;;;5.10;99.90;;;;;;5057030;28;25143;-79
2023/01/10 02:37:59;;;;;;;8.93;2.97;;;5.10;99.90;;;;;;5056592;28;25156;-79
2023/01/10 02:41:01;;;;;;;8.30;2.97;;;5.10;99.90;;;;;;5038910;28;25124;-79
2023/01/10 02:43:46;;;;;;;8.70;3.25;;;5.10;99.90;;;;;;5056223;28;25098;-79
2023/01/10 02:46:24;;;;;;;6.50;2.17;;;5.10;99.90;;;;;;5056801;28;25103;-79
2023/01/10 02:48:53;;;;;;;10.32;3.72;;;5.10;99.90;;;;;;5056947;28;25109;-79
2023/01/10 02:51:21;;;;;;;10.45;3.38;;;5.20;99.90;;;;;;5056336;28;25081;-79
2023/01/10 02:54:02;;;;;;;11.00;3.75;;;5.20;99.90;;;;;;5038398;28;25054;-79
2023/01/10 02:56:50;;;;;;;11.05;3.67;;;5.20;99.90;;;;;;5038615;28;25072;-79
2023/01/10 02:59:43;;;;;;;10.63;4.10;;;5.20;99.90;;;;;;5038869;28;25080;-79
2023/01/10 03:02:40;;;;;;;8.45;3.47;;;5.20;99.90;;;;;;5055400;28;25076;-79
2023/01/10 03:05:21;;;;;;;11.98;3.83;;;5.20;99.90;;;;;;5056607;28;25070;-79
2023/01/10 03:08:30;;;;;;;11.40;4.43;;;5.20;99.90;;;;;;5056472;28;25068;-79
2023/01/10 03:11:05;;;;;;;15.10;4.22;;;5.20;99.90;;;;;;5032950;28;25095;-79
2023/01/10 03:13:55;;;;;;;15.60;5.32;;;5.30;99.90;;;;;;5056527;28;25127;-78
2023/01/10 03:16:27;;;;;;;14.48;4.80;;;5.30;99.90;;;;;;5056501;28;25103;-79
2023/01/10 03:19:20;;;;;;;17.35;4.57;;;5.30;99.90;;;;;;5057009;28;25091;-79
2023/01/10 03:21:54;;;;;;;19.05;5.60;;;5.40;99.90;;;;;;5057032;28;25058;-79
2023/01/10 03:24:30;;;;;;;18.98;4.75;;;5.40;99.90;;;;;;5056422;28;25130;-79
2023/01/10 03:27:06;;;;;;;20.40;5.43;;;5.40;99.90;;;;;;5056188;28;25092;-79
2023/01/10 03:29:59;;;;;;;22.25;7.78;;;5.50;99.90;;;;;;5056178;28;25125;-79
2023/01/10 03:32:29;;;;;;;10.38;4.38;;;5.50;99.90;;;;;;5074409;28;25072;-79
2023/01/10 03:34:57;;;;;;;22.35;6.93;;;5.50;99.90;;;;;;5075048;28;25108;-79
2023/01/10 03:37:54;;;;;;;15.57;5.95;;;5.60;99.90;;;;;;5076553;28;25055;-79
2023/01/10 03:40:21;;;;;;;21.35;7.05;;;5.60;99.90;;;;;;5076338;28;25055;-79
2023/01/10 03:46:39;;;;;;;21.45;6.07;;;5.60;99.90;;;;;;5014410;28;25080;-79
2023/01/10 03:49:08;;;;;;;17.05;7.32;;;5.60;99.90;;;;;;5071773;28;25115;-79
2023/01/10 03:51:38;;;;;;;15.15;5.63;;;5.60;99.90;;;;;;5076095;28;25078;-79
2023/01/10 03:54:06;;;;;;;15.32;6.25;;;5.60;99.90;;;;;;5075011;28;25065;-79
2023/01/10 03:56:45;;;;;;;28.75;6.70;;;5.70;99.90;;;;;;5076193;28;25058;-79
2023/01/10 03:59:12;;;;;;;20.70;5.95;;;5.60;99.90;;;;;;5075023;28;25106;-79
2023/01/10 04:01:40;;;;;;;13.63;5.72;;;5.60;99.90;;;;;;5074707;28;25113;-79
2023/01/10 04:04:07;;;;;;;19.27;5.75;;;5.60;99.90;;;;;;5076044;28;25072;-79
2023/01/10 04:06:33;;;;;;;19.92;5.60;;;5.60;99.90;;;;;;5074617;28;25051;-79
2023/01/10 04:09:01;;;;;;;18.65;6.68;;;5.60;99.90;;;;;;5075794;28;25110;-79
2023/01/10 04:11:28;;;;;;;14.18;5.13;;;5.60;99.90;;;;;;5074541;28;25111;-79
2023/01/10 04:13:55;;;;;;;28.33;5.82;;;5.60;99.90;;;;;;5077456;28;25142;-79
2023/01/10 04:16:23;;;;;;;19.67;6.40;;;5.60;99.90;;;;;;5078235;28;25052;-79
2023/01/10 04:18:50;;;;;;;16.10;5.45;;;5.50;99.90;;;;;;5078980;28;25069;-79
2023/01/10 04:21:17;;;;;;;18.55;6.88;;;5.50;99.90;;;;;;5078481;28;25105;-79
2023/01/10 04:23:44;;;;;;;14.48;5.10;;;5.50;99.90;;;;;;5078082;28;25052;-77
2023/01/10 04:26:11;;;;;;;17.23;5.75;;;5.50;99.90;;;;;;5079472;28;25062;-79
2023/01/10 04:28:38;;;;;;;13.30;6.07;;;5.50;99.90;;;;;;5079184;28;25071;-79
2023/01/10 04:31:06;;;;;;;18.85;5.15;;;5.50;99.90;;;;;;5070546;28;25079;-79
2023/01/10 04:33:33;;;;;;;19.38;6.80;;;5.50;99.90;;;;;;5041430;28;25055;-79
2023/01/10 04:36:00;;;;;;;12.60;4.80;;;5.40;99.90;;;;;;5041267;28;25045;-79
2023/01/10 04:38:28;;;;;;;22.00;5.85;;;5.50;99.90;;;;;;5040682;28;25070;-79
2023/01/10 04:40:57;;;;;;;15.80;5.05;;;5.40;99.90;;;;;;5057734;28;24953;-79
2023/01/10 04:43:26;;;;;;;16.40;4.90;;;5.40;99.90;;;;;;5040901;28;25063;-79
2023/01/10 04:45:53;;;;;;;14.95;4.97;;;5.30;99.90;;;;;;5041454;28;25067;-79
2023/01/10 04:48:20;;;;;;;18.63;6.53;;;5.30;99.90;;;;;;5041197;28;25065;-79
2023/01/10 04:50:51;;;;;;;12.82;5.38;;;5.30;99.90;;;;;;5040562;28;25050;-79
2023/01/10 04:53:19;;;;;;;19.00;5.38;;;5.30;99.90;;;;;;5040887;28;25075;-79
2023/01/10 04:55:46;;;;;;;17.13;4.93;;;5.30;99.90;;;;;;5058615;28;25113;-79
2023/01/10 04:58:14;;;;;;;18.90;6.13;;;5.30;99.90;;;;;;5059002;28;25061;-79
2023/01/10 05:00:41;;;;;;;19.98;4.85;;;5.40;99.90;;;;;;5058850;28;25102;-79
2023/01/10 05:03:08;;;;;;;22.33;5.43;;;5.40;99.90;;;;;;5058788;28;25061;-80
2023/01/10 05:05:35;;;;;;;20.13;6.03;;;5.40;99.90;;;;;;5058414;28;25071;-79
2023/01/10 05:08:04;;;;;;;20.83;5.40;;;5.40;99.90;;;;;;5058478;28;25082;-79
2023/01/10 05:10:32;;;;;;;21.38;6.85;;;5.40;99.90;;;;;;5058227;28;25116;-79
2023/01/10 05:12:59;;;;;;;19.60;7.00;;;5.30;99.90;;;;;;5058367;28;25110;-79
2023/01/10 05:15:26;;;;;;;17.42;6.32;;;5.30;99.90;;;;;;5040537;28;25081;-79
2023/01/10 05:17:59;;;;;;;22.92;6.30;;;5.30;99.90;;;;;;5058917;28;25129;-79
2023/01/10 05:20:26;;;;;;;15.45;5.63;;;5.30;99.90;;;;;;5058438;28;25080;-79
2023/01/10 05:22:54;;;;;;;19.88;6.22;;;5.20;99.90;;;;;;5040352;28;25137;-79
2023/01/10 05:25:21;;;;;;;13.10;5.57;;;5.20;99.90;;;;;;5039348;28;25067;-79
2023/01/10 05:27:48;;;;;;;16.90;6.03;;;5.20;99.90;;;;;;5058220;28;25065;-79
2023/01/10 05:30:15;;;;;;;20.02;5.30;;;5.20;99.90;;;;;;5040185;28;25116;-79
2023/01/10 05:32:42;;;;;;;14.93;5.85;;;5.20;99.90;;;;;;5058125;28;25059;-79
2023/01/10 05:35:10;;;;;;;14.13;5.28;;;5.20;99.90;;;;;;5058391;28;25046;-79
2023/01/10 05:37:37;;;;;;;15.18;5.43;;;5.20;99.90;;;;;;5040232;28;25099;-79
2023/01/10 05:40:05;;;;;;;17.25;5.28;;;5.20;99.90;;;;;;5058028;28;25117;-79
2023/01/10 05:42:33;;;;;;;21.48;6.43;;;5.20;99.90;;;;;;5058017;28;25103;-79
2023/01/10 05:45:02;;;;;;;17.23;5.45;;;5.30;99.90;;;;;;5057912;28;25118;-79
2023/01/10 05:47:29;;;;;;;14.18;5.18;;;5.30;99.90;;;;;;5057893;28;25069;-79
2023/01/10 05:49:56;;;;;;;13.18;4.78;;;5.30;99.90;;;;;;5057748;28;25079;-78
2023/01/10 05:52:24;;;;;;;16.95;5.43;;;5.30;99.90;;;;;;5039665;28;25092;-79
2023/01/10 05:54:51;;;;;;;19.42;5.60;;;5.30;99.90;;;;;;5057489;28;25068;-79
2023/01/10 05:57:19;;;;;;;20.95;6.80;;;5.30;99.90;;;;;;5056312;28;25081;-79
2023/01/10 05:59:46;;;;;;;18.05;7.35;;;5.30;99.90;;;;;;5039812;28;25140;-79
2023/01/10 06:02:13;;;;;;;17.88;8.48;;;5.30;99.90;;;;;;5057288;28;25066;-79
2023/01/10 06:04:40;;;;;;;19.85;8.70;;;5.30;99.90;;;;;;5039637;28;25079;-79
2023/01/10 06:07:08;;;;;;;21.65;9.43;;;5.30;99.90;;;;;;5057172;28;25097;-79
2023/01/10 06:09:35;;;;;;;18.17;8.75;;;5.40;99.90;;;;;;5057620;28;25065;-78
2023/01/10 06:12:03;;;;;;;22.55;8.50;;;5.40;99.90;;;;;;5039337;28;25115;-78
2023/01/10 06:14:30;;;;;;;27.67;10.02;;;5.40;99.90;;;;;;5039457;28;25116;-78
2023/01/10 06:16:58;;;;;;;31.92;9.52;;;5.40;99.90;;;;;;5039329;28;25124;-78
2023/01/10 06:19:25;;;;;;;25.77;9.63;;;5.40;99.90;;;;;;5039454;28;25099;-78
2023/01/10 06:21:52;;;;;;;32.55;9.98;;;5.50;99.90;;;;;;5039171;28;25145;-77
2023/01/10 06:24:19;;;;;;;24.00;9.60;;;5.40;99.90;;;;;;5057219;28;25093;-78
2023/01/10 06:26:47;;;;;;;21.20;8.00;;;5.50;99.90;;;;;;5057179;28;25104;-77
2023/01/10 06:29:14;;;;;;;18.55;8.75;;;5.40;99.90;;;;;;5057271;28;25110;-78
2023/01/10 06:31:41;;;;;;;22.33;8.10;;;5.40;99.90;;;;;;5062026;28;25086;-77
2023/01/10 06:34:08;;;;;;;21.35;8.30;;;5.50;99.90;;;;;;5075730;28;25064;-78
2023/01/10 06:36:36;;;;;;;22.70;8.73;;;5.50;99.90;;;;;;5076413;28;25063;-78
2023/01/10 06:39:03;;;;;;;21.88;8.45;;;5.50;99.90;;;;;;5075735;28;25070;-78
2023/01/10 06:41:30;;;;;;;25.60;9.55;;;5.50;99.90;;;;;;5075638;28;25125;-77
2023/01/10 06:43:58;;;;;;;15.20;7.50;;;5.50;99.90;;;;;;5075573;28;25065;-77
2023/01/10 06:46:25;;;;;;;24.90;7.93;;;5.50;99.90;;;;;;5076577;28;25135;-77
2023/01/10 06:48:53;;;;;;;20.42;8.65;;;5.40;99.90;;;;;;5077009;28;25062;-77
2023/01/10 06:51:20;;;;;;;19.50;7.75;;;5.50;99.90;;;;;;5076431;28;25065;-77
2023/01/10 06:53:48;;;;;;;17.15;7.43;;;5.40;99.90;;;;;;5075398;28;25057;-78
2023/01/10 06:56:15;;;;;;;18.92;7.40;;;5.40;99.90;;;;;;5075352;28;25130;-77
2023/01/10 06:58:48;;;;;;;26.27;7.45;;;5.40;99.90;;;;;;5075522;28;25063;-77
2023/01/10 07:01:18;;;;;;;27.80;9.25;;;5.40;99.90;;;;;;5076953;28;25079;-77
2023/01/10 07:03:45;;;;;;;23.20;8.00;;;5.40;99.90;;;;;;5076464;28;25059;-77
2023/01/10 07:06:13;;;;;;;25.08;8.55;;;5.40;99.90;;;;;;5076390;28;25121;-77
2023/01/10 07:08:43;;;;;;;19.17;7.75;;;5.40;99.90;;;;;;5076442;28;25072;-77
2023/01/10 07:11:12;;;;;;;15.63;7.35;;;5.40;99.90;;;;;;5075128;28;25123;-77
2023/01/10 07:13:40;;;;;;;16.15;6.38;;;5.50;99.90;;;;;;5076337;28;25105;-77
2023/01/10 07:16:13;;;;;;;15.48;7.22;;;5.50;99.90;;;;;;5076573;28;25044;-77
2023/01/10 07:18:41;;;;;;;20.65;7.35;;;5.50;99.90;;;;;;5075361;28;25089;-77
2023/01/10 07:21:09;;;;;;;19.40;7.07;;;5.50;99.90;;;;;;5075078;28;25097;-78
2023/01/10 07:23:38;;;;;;;20.42;6.70;;;5.50;99.90;;;;;;5075117;28;25053;-77
2023/01/10 07:26:07;;;;;;;20.65;7.07;;;5.50;99.90;;;;;;5076170;28;25121;-77
2023/01/10 07:28:34;;;;;;;20.02;7.07;;;5.50;99.90;;;;;;5075272;28;25087;-77
2023/01/10 07:31:04;;;;;;;19.13;7.18;;;5.50;99.90;;;;;;5074700;28;25061;-77
2023/01/10 07:33:31;;;;;;;21.13;7.25;;;5.50;99.90;;;;;;5076164;28;25134;-77
2023/01/10 07:36:00;;;;;;;18.05;6.47;;;5.50;99.90;;;;;;5076012;28;25079;-77
2023/01/10 07:38:28;;;;;;;20.83;7.50;;;5.50;99.90;;;;;;5075067;28;25071;-77
2023/01/10 07:40:56;;;;;;;18.13;7.43;;;5.50;99.90;;;;;;5076043;28;25127;-77
2023/01/10 07:43:23;;;;;;;21.35;7.35;;;5.50;99.90;;;;;;5074864;28;25069;-77
2023/01/10 07:45:50;;;;;;;19.55;7.70;;;5.40;99.90;;;;;;5074879;28;25069;-77
2023/01/10 07:48:18;;;;;;;19.30;7.65;;;5.40;99.90;;;;;;5076730;28;25053;-77
2023/01/10 07:50:45;;;;;;;17.15;8.20;;;5.40;99.90;;;;;;5080103;28;25101;-77
2023/01/10 07:53:13;;;;;;;21.60;8.48;;;5.40;99.90;;;;;;5079228;28;25117;-77
2023/01/10 07:55:42;;;;;;;16.00;7.78;;;5.30;99.90;;;;;;5079997;28;25075;-77
2023/01/10 07:58:09;;;;;;;20.48;7.55;;;5.30;99.90;;;;;;5079707;28;25079;-79
2023/01/10 08:00:37;;;;;;;19.45;8.40;;;5.30;99.90;;;;;;5078573;28;25101;-79
2023/01/10 08:03:05;;;;;;;22.05;7.10;;;5.30;99.90;;;;;;5078684;28;25100;-78
2023/01/10 08:05:33;;;;;;;17.52;6.82;;;5.30;99.90;;;;;;5080670;28;25055;-79
2023/01/10 08:08:08;;;;;;;17.95;6.95;;;5.30;99.90;;;;;;5079768;28;25072;-79
2023/01/10 08:10:36;;;;;;;15.05;7.53;;;5.40;99.90;;;;;;5079761;28;25065;-79
2023/01/10 08:13:03;;;;;;;30.63;8.38;;;5.40;99.90;;;;;;5078462;28;25059;-79
2023/01/10 08:15:31;;;;;;;19.65;7.45;;;5.40;99.90;;;;;;5079416;28;25134;-79
2023/01/10 08:18:02;;;;;;;23.20;7.38;;;5.40;99.90;;;;;;5079643;28;25075;-79
2023/01/10 08:20:29;;;;;;;26.58;7.80;;;5.40;99.90;;;;;;5078187;28;25103;-79
2023/01/10 08:23:00;;;;;;;29.70;6.82;;;5.40;99.90;;;;;;5079331;28;25056;-79
2023/01/10 08:25:28;;;;;;;15.73;7.30;;;5.50;99.90;;;;;;5078080;28;25096;-79
2023/01/10 08:27:55;;;;;;;27.67;8.38;;;5.50;99.90;;;;;;5079203;28;25087;-79
2023/01/10 08:30:23;;;;;;;23.77;6.35;;;5.50;99.90;;;;;;5076111;28;25060;-78
2023/01/10 08:32:51;;;;;;;37.15;9.32;;;5.50;99.90;;;;;;5041541;28;25109;-79
2023/01/10 08:35:18;;;;;;;25.50;10.55;;;5.50;99.90;;;;;;5041242;28;25064;-78
2023/01/10 08:37:46;;;;;;;25.98;9.10;;;5.60;99.90;;;;;;5041190;28;25058;-77
2023/01/10 08:40:14;;;;;;;28.30;8.57;;;5.60;99.90;;;;;;5058898;28;25065;-77
2023/01/10 08:42:41;;;;;;;28.17;8.57;;;5.70;99.90;;;;;;5041253;28;25059;-77
2023/01/10 08:45:09;;;;;;;25.38;7.80;;;5.70;99.90;;;;;;5041152;28;25120;-77
2023/01/10 08:47:36;;;;;;;23.17;8.10;;;5.70;99.90;;;;;;5041092;28;25112;-78
2023/01/10 08:50:05;;;;;;;29.40;8.70;;;5.70;99.90;;;;;;5041062;28;25052;-77
2023/01/10 08:52:33;;;;;;;25.23;10.68;;;5.80;99.90;;;;;;5040852;28;25147;-78
2023/01/10 08:55:00;;;;;;;23.48;7.88;;;5.80;99.90;;;;;;5041206;28;25138;-79
2023/01/10 08:57:27;;;;;;;17.85;7.25;;;5.80;99.90;;;;;;5058900;28;25133;-78
2023/01/10 08:59:55;;;;;;;21.33;7.50;;;5.80;99.90;;;;;;5040754;28;25117;-80
2023/01/10 09:02:22;;;;;;;19.25;7.47;;;5.80;99.90;;;;;;5058765;28;25052;-80
2023/01/10 09:04:50;;;;;;;22.83;8.32;;;5.80;99.90;;;;;;5058438;28;25055;-79
2023/01/10 09:07:17;;;;;;;23.75;9.38;;;5.80;99.90;;;;;;5040628;28;25135;-76
2023/01/10 09:09:44;;;;;;;17.50;6.72;;;5.80;99.90;;;;;;5040867;28;25124;-76
2023/01/10 09:14:58;;;;;;;17.77;6.47;;;5.90;99.90;;;;;;5058621;28;25063;-77
2023/01/10 09:17:25;;;;;;;27.00;9.23;;;5.90;99.90;;;;;;5058189;28;25104;-77
2023/01/10 09:19:54;;;;;;;16.55;6.55;;;5.90;99.90;;;;;;5058348;28;25074;-77
2023/01/10 09:22:23;;;;;;;18.45;6.93;;;5.90;99.90;;;;;;5058642;28;25146;-77
2023/01/10 09:24:50;;;;;;;24.48;7.07;;;5.90;99.90;;;;;;5058675;28;25098;-77
2023/01/10 09:27:18;;;;;;;25.95;7.50;;;5.90;99.90;;;;;;5058324;28;25068;-77
2023/01/10 09:29:46;;;;;;;21.33;7.68;;;5.90;99.90;;;;;;5040493;28;25067;-77
2023/01/10 09:32:15;;;;;;;22.05;5.43;;;6.00;99.90;;;;;;5057854;28;25066;-78
2023/01/10 09:34:43;;;;;;;22.70;6.15;;;6.00;99.90;;;;;;5058479;28;25053;-77
2023/01/10 09:37:10;;;;;;;18.83;6.10;;;6.00;99.90;;;;;;5040100;28;25067;-78
2023/01/10 09:39:38;;;;;;;15.45;6.63;;;6.00;99.90;;;;;;5040109;28;25066;-75
2023/01/10 09:42:27;;;;;;;21.00;6.25;;;6.00;99.90;;;;;;5057761;28;25080;-75
2023/01/10 09:45:01;;;;;;;15.75;6.32;;;5.90;99.90;;;;;;5039833;28;25058;-74
2023/01/10 09:47:50;;;;;;;17.48;7.38;;;5.90;99.90;;;;;;5039957;28;25128;-75
2023/01/10 09:50:21;;;;;;;28.70;9.07;;;5.90;99.90;;;;;;5057557;28;25049;-75
2023/01/10 09:53:02;;;;;;;19.90;6.45;;;5.90;99.90;;;;;;5058163;28;25097;-75
2023/01/10 09:55:35;;;;;;;32.67;7.38;;;5.90;99.90;;;;;;5057489;28;25071;-75
2023/01/10 09:58:19;;;;;;;24.80;7.07;;;6.00;99.90;;;;;;5058423;28;25117;-75
2023/01/10 10:00:52;;;;;;;29.83;8.18;;;6.10;99.90;;;;;;5057937;28;25078;-75
2023/01/10 10:03:38;;;;;;;19.33;5.85;;;6.20;99.90;;;;;;5057834;28;25080;-76
2023/01/10 10:06:08;;;;;;;25.15;6.60;;;6.30;99.90;;;;;;5057887;28;25051;-76
2023/01/10 10:08:36;;;;;;;21.95;6.45;;;6.40;99.90;;;;;;5039557;28;25051;-75
2023/01/10 10:11:29;;;;;;;14.73;6.07;;;6.40;99.90;;;;;;5038925;28;25060;-76
2023/01/10 10:14:25;;;;;;;19.83;5.13;;;6.40;99.90;;;;;;5057024;28;25117;-75
2023/01/10 10:17:07;;;;;;;23.45;5.57;;;6.50;99.90;;;;;;5039440;28;25098;-77
2023/01/10 10:19:56;;;;;;;19.90;6.82;;;6.50;99.90;;;;;;5057058;28;25068;-77
2023/01/10 10:22:48;;;;;;;26.40;6.65;;;6.50;99.90;;;;;;5057346;28;25068;-75
2023/01/10 10:25:31;;;;;;;15.45;5.20;;;6.60;99.90;;;;;;5056998;28;25046;-76
2023/01/10 10:28:17;;;;;;;24.98;5.50;;;6.60;99.90;;;;;;5057240;28;25059;-75
2023/01/10 10:31:04;;;;;;;19.17;5.90;;;6.70;99.90;;;;;;5056913;28;25089;-77
2023/01/10 10:33:59;;;;;;;20.52;5.45;;;6.70;99.90;;;;;;5057269;28;25098;-76
2023/01/10 10:36:47;;;;;;;14.05;4.47;;;6.80;99.90;;;;;;5039015;28;25068;-75
2023/01/10 10:39:38;;;;;;;16.25;5.05;;;6.70;99.90;;;;;;5039093;28;25092;-75
2023/01/10 10:42:12;;;;;;;18.25;5.28;;;6.70;99.90;;;;;;5038979;28;25056;-75
2023/01/10 10:44:55;;;;;;;26.65;4.95;;;6.70;99.90;;;;;;5057160;28;25068;-77
2023/01/10 10:47:28;;;;;;;23.15;7.95;;;6.70;99.90;;;;;;5038947;28;25069;-76
2023/01/10 10:50:15;;;;;;;23.40;5.38;;;6.70;99.90;;;;;;5056830;28;25061;-76
2023/01/10 10:52:44;;;;;;;20.88;5.22;;;6.70;99.90;;;;;;5056837;28;25122;-74
2023/01/10 10:55:16;;;;;;;19.63;5.43;;;6.70;99.90;;;;;;5057052;28;25062;-74
2023/01/10 10:57:46;;;;;;;28.30;7.10;;;6.70;99.90;;;;;;5056769;28;25113;-74
2023/01/10 11:00:19;;;;;;;27.98;6.75;;;6.70;99.90;;;;;;5056666;28;25070;-77
2023/01/10 11:03:06;;;;;;;29.42;6.93;;;6.70;99.90;;;;;;5057116;28;25093;-77
2023/01/10 11:05:42;;;;;;;28.02;6.43;;;6.70;99.90;;;;;;5056873;28;25090;-74
2023/01/10 11:08:14;;;;;;;19.27;6.28;;;6.70;99.90;;;;;;5038582;28;25069;-76
2023/01/10 11:10:49;;;;;;;19.13;6.25;;;6.80;99.90;;;;;;5056848;28;25106;-74
2023/01/10 11:13:34;;;;;;;20.17;7.18;;;6.80;99.90;;;;;;5038773;28;25069;-74
2023/01/10 11:16:05;;;;;;;21.83;6.45;;;6.80;99.90;;;;;;5056842;28;25055;-74
2023/01/10 11:18:33;;;;;;;29.52;6.10;;;6.90;99.90;;;;;;5056255;28;25074;-75
2023/01/10 11:21:13;;;;;;;23.33;6.60;;;6.90;99.90;;;;;;5038507;28;25112;-75
2023/01/10 11:23:51;;;;;;;17.98;4.78;;;6.90;99.90;;;;;;5041262;28;25051;-76
2023/01/10 11:26:26;;;;;;;15.90;5.57;;;6.80;99.90;;;;;;5060625;28;25070;-74
2023/01/10 11:29:15;;;;;;;20.92;6.18;;;6.90;99.90;;;;;;5060593;28;25069;-75
2023/01/10 11:31:44;;;;;;;14.65;5.05;;;6.90;99.90;;;;;;5060139;28;25066;-75
2023/01/10 11:34:30;;;;;;;23.60;6.05;;;6.90;99.90;;;;;;5060183;28;25060;-74
2023/01/10 11:36:59;;;;;;;;;;;7.00;99.90;;;;;;5042859;28;25105;-76
2023/01/10 11:39:28;;;;;;;19.35;5.60;;;7.00;99.90;;;;;;5042460;28;24070;-75
2023/01/10 11:41:57;;;;;;;15.32;4.15;;;7.10;99.90;;;;;;5042466;28;25082;-72
2023/01/10 11:44:28;;;;;;;18.77;6.65;;;7.10;99.90;;;;;;5042568;28;25063;-72
2023/01/10 11:47:03;;;;;;;21.10;5.22;;;7.20;99.90;;;;;;5042232;28;25055;-72
2023/01/10 11:49:40;;;;;;;18.10;4.03;;;7.20;99.90;;;;;;5060361;28;25121;-73
2023/01/10 11:52:22;;;;;;;17.27;4.22;;;7.30;99.90;;;;;;5060124;28;25097;-75
2023/01/10 11:54:50;;;;;;;30.15;4.70;;;7.30;99.90;;;;;;5059787;28;25104;-74
2023/01/10 11:57:25;;;;;;;22.92;4.28;;;7.20;99.90;;;;;;5059789;28;25103;-74
2023/01/10 12:00:08;;;;;;;21.45;5.07;;;7.30;99.90;;;;;;5059719;28;25078;-75
2023/01/10 12:02:41;;;;;;;19.70;5.30;;;7.20;99.90;;;;;;5059765;28;25120;-75
2023/01/10 12:05:20;;;;;;;18.17;4.65;;;7.20;99.90;;;;;;5059605;28;25092;-75
2023/01/10 12:08:05;;;;;;;15.90;4.07;;;7.30;99.90;;;;;;5060233;28;25139;-75
2023/01/10 12:10:33;;;;;;;14.77;4.40;;;7.30;99.90;;;;;;5059558;28;25115;-75
2023/01/10 12:13:15;;;;;;;16.77;4.40;;;7.30;99.90;;;;;;5060000;28;25075;-75
2023/01/10 12:15:42;;;;;;;22.55;6.80;;;7.30;99.90;;;;;;5059428;28;25056;-76
2023/01/10 12:18:11;;;;;;;27.80;5.53;;;7.40;99.90;;;;;;5041828;28;25152;-77
2023/01/10 12:20:47;;;;;;;14.77;4.45;;;7.40;99.90;;;;;;5041654;28;25074;-76
2023/01/10 12:23:23;;;;;;;19.50;5.25;;;7.40;99.90;;;;;;5041562;28;25072;-76
2023/01/10 12:25:50;;;;;;;16.23;4.30;;;7.40;99.90;;;;;;5059250;28;25073;-76
2023/01/10 12:28:26;;;;;;;27.20;5.78;;;7.40;99.90;;;;;;5041584;28;25101;-76
2023/01/10 12:30:56;;;;;;;23.67;3.63;;;7.40;99.90;;;;;;5059021;28;25059;-73
2023/01/10 12:33:34;;;;;;;17.02;4.20;;;7.40;99.90;;;;;;5058944;28;24997;-73
2023/01/10 12:36:32;;;;;;;16.73;4.68;;;7.50;99.90;;;;;;5059024;28;25070;-73
2023/01/10 12:39:20;;;;;;;11.40;3.85;;;7.50;99.90;;;;;;5059447;28;25112;-74
2023/01/10 12:45:26;;;;;;;23.05;4.95;;;7.50;99.90;;;;;;5059056;28;25070;-76
2023/01/10 12:48:04;;;;;;;17.25;5.15;;;7.50;99.90;;;;;;5058823;28;25136;-76
2023/01/10 12:50:53;;;;;;;19.10;4.18;;;7.50;99.90;;;;;;5059017;28;25078;-75
2023/01/10 12:53:32;;;;;;;20.08;5.95;;;7.50;99.90;;;;;;5042908;28;25073;-81
2023/01/10 12:56:06;;;;;;;19.80;4.32;;;7.50;99.90;;;;;;5058041;28;25068;-79
2023/01/10 12:58:42;;;;;;;15.55;4.10;;;7.50;99.90;;;;;;5058741;28;25065;-80
2023/01/10 13:01:17;;;;;;;;;;;7.50;99.90;;;;;;5058910;28;25073;-80
2023/01/10 13:03:51;;;;;;;22.98;6.43;;;7.50;99.90;;;;;;5058766;28;25119;-80
2023/01/10 13:06:34;;;;;;;23.55;4.88;;;7.50;99.90;;;;;;5040710;28;25078;-82
2023/01/10 13:09:07;;;;;;;18.25;5.25;;;7.50;99.90;;;;;;5040773;28;25084;-75
2023/01/10 13:11:57;;;;;;;12.60;3.75;;;7.40;99.90;;;;;;5058366;28;25052;-76
2023/01/10 13:14:50;;;;;;;15.38;4.55;;;7.40;99.90;;;;;;5058562;28;25077;-74
2023/01/10 13:17:32;;;;;;;20.00;4.07;;;7.40;99.90;;;;;;5058258;28;25104;-74
2023/01/10 13:20:25;;;;;;;14.77;4.57;;;7.30;99.90;;;;;;5040490;28;25128;-77
2023/01/10 13:22:59;;;;;;;13.50;4.13;;;7.30;99.90;;;;;;5058394;28;25063;-75
2023/01/10 13:25:36;;;;;;;12.13;3.95;;;7.30;99.90;;;;;;5058127;28;25081;-72
2023/01/10 13:28:06;;;;;;;15.75;3.83;;;7.20;99.90;;;;;;5058628;28;25098;-71
2023/01/10 13:30:36;;;;;;;13.60;4.75;;;7.20;99.90;;;;;;5058026;28;25130;-74